Time;durP1;ratioP1;P1;durP2;ratioP2;P2;SDS_P1;SDS_P2;PMS_P1;PMS_P2;Temp;Humidity;BMP_temperature;BMP_pressure;BME280_temperature;BME280_humidity;BME280_pressure;Samples;Min_cycle;Max_cycle;Signal;HPM_P1;HPM_P2
2022/04/11 00:02:17;;;;;;;16.27;9.02;;;1.10;99.90;;;-146.41;100.00;57768.22;4994821;28;20068;-72
2022/04/11 00:04:43;;;;;;;15.65;9.63;;;1.00;99.90;;;-146.41;100.00;57768.22;4994986;28;20046;-73
2022/04/11 00:07:10;;;;;;;23.92;11.30;;;1.00;99.90;;;-146.41;100.00;57768.22;4996291;28;20043;-73
2022/04/11 00:09:37;;;;;;;18.02;9.07;;;1.10;99.90;;;-146.41;100.00;57768.22;4999692;28;20133;-72
2022/04/11 00:12:05;;;;;;;13.93;8.00;;;1.00;99.90;;;-146.41;100.00;57768.22;4980122;28;20065;-72
2022/04/11 00:14:32;;;;;;;14.68;7.72;;;-0.10;99.90;;;-146.41;100.00;57768.22;4992951;28;20141;-71
2022/04/11 00:16:59;;;;;;;12.38;7.30;;;1.00;99.90;;;-146.41;100.00;57768.22;4993493;28;20563;-73
2022/04/11 00:19:26;;;;;;;15.02;7.43;;;1.10;99.90;;;-146.41;100.00;57768.22;4994875;28;20130;-73
2022/04/11 00:21:53;;;;;;;13.38;7.70;;;1.10;99.90;;;-146.41;100.00;57768.22;4996850;28;20057;-72
2022/04/11 00:24:20;;;;;;;15.35;8.10;;;1.10;99.90;;;-146.41;100.00;57768.22;4993186;28;20155;-72
2022/04/11 00:26:48;;;;;;;15.70;8.10;;;1.20;99.90;;;-146.41;100.00;57768.22;4994050;28;20576;-73
2022/04/11 00:29:15;;;;;;;13.82;7.50;;;1.20;99.90;;;-146.41;100.00;57768.22;4997080;28;20085;-72
2022/04/11 00:31:42;;;;;;;15.60;8.68;;;1.30;99.90;;;-146.41;100.00;57768.22;5003003;28;20042;-74
2022/04/11 00:34:09;;;;;;;13.52;7.80;;;1.30;99.90;;;-146.41;100.00;57768.22;4990304;28;20137;-73
2022/04/11 00:36:35;;;;;;;16.50;9.27;;;1.30;99.90;;;-146.41;100.00;57768.22;4977330;28;20510;-72
2022/04/11 00:39:03;;;;;;;14.35;8.52;;;1.30;99.90;;;-146.41;100.00;57768.22;4991708;28;20603;-72
2022/04/11 00:41:32;;;;;;;16.08;9.02;;;1.30;99.90;;;-146.41;100.00;57768.22;4976190;28;20136;-72
2022/04/11 00:43:59;;;;;;;17.70;10.73;;;1.30;99.90;;;-146.41;100.00;57768.22;4991734;28;20060;-72
2022/04/11 00:46:26;;;;;;;14.00;8.52;;;1.30;99.90;;;-146.41;100.00;57768.22;5008670;28;20133;-72
2022/04/11 00:48:54;;;;;;;16.42;9.18;;;1.30;99.90;;;-146.41;100.00;57768.22;4995225;28;20046;-73
2022/04/11 00:51:23;;;;;;;14.35;7.80;;;1.40;99.90;;;-146.41;100.00;57768.22;4991988;28;20042;-72
2022/04/11 00:53:55;;;;;;;15.68;9.50;;;1.50;99.90;;;-146.41;100.00;57768.22;5000664;28;20129;-73
2022/04/11 00:56:24;;;;;;;13.02;7.97;;;1.30;99.90;;;-146.41;100.00;57768.22;4993690;28;20503;-72
2022/04/11 00:58:51;;;;;;;14.48;7.75;;;1.30;99.90;;;-146.41;100.00;57768.22;4993705;28;20100;-74
2022/04/11 01:01:18;;;;;;;16.60;8.10;;;1.30;99.90;;;-146.41;100.00;57768.22;4996677;28;20579;-73
2022/04/11 01:03:46;;;;;;;14.52;8.15;;;1.30;99.90;;;-146.41;100.00;57768.22;4999828;28;20160;-73
2022/04/11 01:06:13;;;;;;;13.90;8.80;;;1.30;99.90;;;-146.41;100.00;57768.22;4997463;28;20141;-73
2022/04/11 01:08:41;;;;;;;15.98;9.85;;;1.20;99.90;;;-146.41;100.00;57768.22;4997796;28;20085;-73
2022/04/11 01:11:08;;;;;;;13.15;8.07;;;1.40;99.90;;;-146.41;100.00;57768.22;4997242;28;20085;-72
2022/04/11 01:13:35;;;;;;;13.32;8.05;;;1.30;99.90;;;-146.41;100.00;57768.22;4996812;28;20555;-74
2022/04/11 01:16:05;;;;;;;12.65;8.00;;;1.30;99.90;;;-146.41;100.00;57768.22;4994241;28;20072;-72
2022/04/11 01:18:37;;;;;;;12.80;8.25;;;1.40;99.90;;;-146.41;100.00;57768.22;4999163;28;20046;-72
2022/04/11 01:21:09;;;;;;;15.77;8.43;;;1.30;99.90;;;-146.41;100.00;57768.22;4995611;28;20108;-72
2022/04/11 01:23:36;;;;;;;16.10;8.88;;;1.30;99.90;;;-146.41;100.00;57768.22;4995049;28;20109;-72
2022/04/11 01:26:06;;;;;;;13.98;7.78;;;1.30;99.90;;;-146.41;100.00;57768.22;4998070;28;20081;-73
2022/04/11 01:28:38;;;;;;;14.48;8.13;;;1.40;99.90;;;-146.41;100.00;57768.22;5001457;28;20061;-74
2022/04/11 01:31:05;;;;;;;19.02;10.23;;;1.40;99.90;;;-146.41;100.00;57768.22;4996176;28;20069;-74
2022/04/11 01:33:32;;;;;;;14.93;8.90;;;1.50;99.90;;;-146.41;100.00;57768.22;4978186;28;20056;-74
2022/04/11 01:36:00;;;;;;;16.67;9.70;;;1.40;99.90;;;-146.41;100.00;57768.22;4994622;28;20165;-74
2022/04/11 01:38:26;;;;;;;21.98;12.00;;;1.40;99.90;;;-146.41;100.00;57768.22;4996831;28;20128;-74
2022/04/11 01:40:55;;;;;;;15.77;11.75;;;1.40;99.90;;;-146.41;100.00;57768.22;4995049;28;20124;-74
2022/04/11 01:43:24;;;;;;;14.30;9.77;;;1.40;99.90;;;-146.41;100.00;57768.22;4999441;28;20568;-74
2022/04/11 01:45:52;;;;;;;15.80;10.55;;;1.40;99.90;;;-146.41;100.00;57768.22;4994741;28;20081;-73
2022/04/11 01:48:19;;;;;;;14.80;8.80;;;1.50;99.90;;;-146.41;100.00;57768.22;4997150;28;20133;-73
2022/04/11 01:50:47;;;;;;;18.33;8.30;;;1.50;99.90;;;-146.41;100.00;57768.22;4997156;28;20143;-73
2022/04/11 01:53:20;;;;;;;12.18;7.80;;;1.50;99.90;;;-146.41;100.00;57768.22;4993498;28;20070;-74
2022/04/11 01:55:48;;;;;;;13.73;8.13;;;1.60;99.90;;;-146.41;100.00;57768.22;5002285;28;20538;-72
2022/04/11 01:58:15;;;;;;;18.13;9.73;;;1.60;99.90;;;-146.41;100.00;57768.22;4994802;28;20069;-74
2022/04/11 02:00:43;;;;;;;14.52;8.77;;;1.60;99.90;;;-146.41;100.00;57768.22;4999220;28;20469;-74
2022/04/11 02:03:11;;;;;;;11.85;7.10;;;1.60;99.90;;;-146.41;100.00;57768.22;4999831;28;20078;-73
2022/04/11 02:05:40;;;;;;;12.20;6.30;;;1.40;99.90;;;-146.41;100.00;57768.22;4996311;28;20151;-72
2022/04/11 02:08:10;;;;;;;10.43;5.57;;;1.50;99.90;;;-146.41;100.00;57768.22;4992392;28;20460;-72
2022/04/11 02:10:39;;;;;;;10.63;6.30;;;1.60;99.90;;;-146.41;100.00;57768.22;4997688;28;20046;-72
2022/04/11 02:13:08;;;;;;;13.27;7.57;;;1.80;99.90;;;-146.41;100.00;57768.22;4993817;28;20139;-72
2022/04/11 02:15:35;;;;;;;14.18;7.75;;;1.80;99.90;;;-146.41;100.00;57768.22;4994774;28;20452;-72
2022/04/11 02:18:03;;;;;;;14.07;6.53;;;1.80;99.90;;;-146.41;100.00;57768.22;4998078;28;20047;-72
2022/04/11 02:20:30;;;;;;;12.05;5.82;;;1.80;99.90;;;-146.41;100.00;57768.22;4981922;28;20049;-75
2022/04/11 02:23:00;;;;;;;10.27;5.88;;;1.80;99.90;;;-146.41;100.00;57768.22;5003059;28;20069;-75
2022/04/11 02:25:30;;;;;;;15.85;6.40;;;1.80;99.90;;;-146.41;100.00;57768.22;5000719;28;20041;-75
2022/04/11 02:27:58;;;;;;;11.80;7.75;;;1.80;99.90;;;-146.41;100.00;57768.22;4998183;28;20049;-72
2022/04/11 02:30:27;;;;;;;13.02;7.80;;;1.70;99.90;;;-146.41;100.00;57768.22;4999344;28;20089;-72
2022/04/11 02:32:55;;;;;;;12.95;7.57;;;1.70;99.90;;;-146.41;100.00;57768.22;4999313;28;20117;-72
2022/04/11 02:35:23;;;;;;;13.93;8.70;;;1.80;99.90;;;-146.41;100.00;57768.22;4998644;28;20586;-72
2022/04/11 02:37:50;;;;;;;15.20;7.68;;;1.70;99.90;;;-146.41;100.00;57768.22;5013800;28;20556;-72
2022/04/11 02:40:18;;;;;;;12.48;8.07;;;1.70;99.90;;;-146.41;100.00;57768.22;4994966;28;20055;-72
2022/04/11 02:42:46;;;;;;;15.32;8.32;;;1.60;99.90;;;-146.41;100.00;57768.22;5005606;28;20135;-72
2022/04/11 02:45:15;;;;;;;14.70;8.73;;;1.70;99.90;;;-146.41;100.00;57768.22;4999018;28;20088;-72
2022/04/11 02:47:42;;;;;;;15.02;9.20;;;1.60;99.90;;;-146.41;100.00;57768.22;5005702;28;20096;-72
2022/04/11 02:50:10;;;;;;;13.70;8.60;;;1.80;99.90;;;-146.41;100.00;57768.22;5000184;28;20477;-72
2022/04/11 02:52:37;;;;;;;11.98;7.38;;;1.60;99.90;;;-146.41;100.00;57768.22;5000805;28;20085;-72
2022/04/11 02:55:05;;;;;;;15.27;8.95;;;1.50;99.90;;;-146.41;100.00;57768.22;5000472;28;20077;-73
2022/04/11 02:57:32;;;;;;;13.18;7.15;;;1.50;99.90;;;-146.41;100.00;57768.22;5000807;28;20144;-72
2022/04/11 02:59:59;;;;;;;11.93;6.78;;;1.50;99.90;;;-146.41;100.00;57768.22;5002801;28;20436;-72
2022/04/11 03:02:28;;;;;;;10.35;6.30;;;1.50;99.90;;;-146.41;100.00;57768.22;4996439;28;20054;-72
2022/04/11 03:04:56;;;;;;;11.30;6.38;;;;;;;-146.41;100.00;57768.22;5001289;28;20043;-72
2022/04/11 03:07:23;;;;;;;9.27;6.03;;;1.60;99.90;;;-146.41;100.00;57768.22;4999617;28;20081;-72
2022/04/11 03:09:50;;;;;;;7.82;5.80;;;1.60;99.90;;;-146.41;100.00;57768.22;5005956;28;20572;-72
2022/04/11 03:12:17;;;;;;;11.02;6.13;;;1.60;99.90;;;-146.41;100.00;57768.22;4998597;28;20084;-72
2022/04/11 03:14:44;;;;;;;21.27;11.57;;;1.60;99.90;;;-146.41;100.00;57768.22;4996869;28;20126;-72
2022/04/11 03:17:11;;;;;;;14.10;8.13;;;1.60;99.90;;;-146.41;100.00;57768.22;4996229;28;20069;-72
2022/04/11 03:19:39;;;;;;;10.43;6.07;;;1.70;99.90;;;-146.41;100.00;57768.22;4997813;28;20055;-72
2022/04/11 03:22:06;;;;;;;13.25;7.72;;;1.50;99.90;;;-146.41;100.00;57768.22;4998545;28;20046;-72
2022/04/11 03:24:33;;;;;;;13.45;7.15;;;1.70;99.90;;;-146.41;100.00;57768.22;4996197;28;20072;-75
2022/04/11 03:27:01;;;;;;;13.63;8.20;;;1.50;99.90;;;-146.41;100.00;57768.22;4999197;28;20046;-72
2022/04/11 03:29:28;;;;;;;12.82;7.47;;;1.40;99.90;;;-146.41;100.00;57768.22;5000355;28;20097;-72
2022/04/11 03:31:55;;;;;;;12.68;7.00;;;1.50;99.90;;;-146.41;100.00;57768.22;4995969;28;20129;-72
2022/04/11 03:34:22;;;;;;;12.68;7.00;;;1.40;99.90;;;-146.41;100.00;57768.22;4999480;28;20050;-72
2022/04/11 03:36:51;;;;;;;11.32;5.78;;;1.40;99.90;;;-146.41;100.00;57768.22;4999345;28;20046;-73
2022/04/11 03:39:18;;;;;;;11.05;5.03;;;1.40;99.90;;;-146.41;100.00;57768.22;4998276;28;20073;-73
2022/04/11 03:41:45;;;;;;;11.48;5.75;;;1.40;99.90;;;-146.41;100.00;57768.22;5001170;28;20038;-73
2022/04/11 03:44:12;;;;;;;9.77;5.35;;;1.40;99.90;;;-146.41;100.00;57768.22;4996826;28;20134;-73
2022/04/11 03:46:40;;;;;;;11.07;5.97;;;1.40;99.90;;;-146.41;100.00;57768.22;4996563;28;20038;-72
2022/04/11 03:49:06;;;;;;;12.85;6.45;;;1.50;99.90;;;-146.41;100.00;57768.22;5001678;28;20125;-73
2022/04/11 03:51:34;;;;;;;10.30;5.47;;;1.50;99.90;;;-146.41;100.00;57768.22;5002986;28;20046;-73
2022/04/11 03:54:01;;;;;;;10.45;6.22;;;1.40;99.90;;;-146.41;100.00;57768.22;4996654;28;20141;-73
2022/04/11 03:56:28;;;;;;;11.57;5.88;;;1.30;99.90;;;-146.41;100.00;57768.22;4993156;28;20050;-73
2022/04/11 03:58:55;;;;;;;9.52;5.80;;;1.30;99.90;;;-146.41;100.00;57768.22;4996083;28;20137;-73
2022/04/11 04:01:22;;;;;;;8.35;4.10;;;1.30;99.90;;;-146.41;100.00;57768.22;4999606;28;20140;-73
2022/04/11 04:03:49;;;;;;;8.23;4.18;;;1.30;99.90;;;-146.41;100.00;57768.22;4996509;28;20555;-73
2022/04/11 04:06:16;;;;;;;11.73;5.22;;;1.30;99.90;;;-146.41;100.00;57768.22;4994536;28;20126;-73
2022/04/11 04:08:43;;;;;;;12.40;6.22;;;1.20;99.90;;;-146.41;100.00;57768.22;4981283;28;20570;-74
2022/04/11 04:11:11;;;;;;;11.35;5.93;;;1.20;99.90;;;-146.41;100.00;57768.22;5000595;28;20073;-74
2022/04/11 04:13:38;;;;;;;14.30;7.93;;;1.20;99.90;;;-146.41;100.00;57768.22;4998171;28;20081;-74
2022/04/11 04:16:05;;;;;;;11.52;5.65;;;1.10;99.90;;;-146.41;100.00;57768.22;4998366;28;20156;-74
2022/04/11 04:18:33;;;;;;;11.68;5.75;;;1.10;99.90;;;-146.41;100.00;57768.22;4994688;28;20050;-73
2022/04/11 04:21:00;;;;;;;10.02;4.47;;;1.10;99.90;;;-146.41;100.00;57768.22;4996892;28;20228;-73
2022/04/11 04:23:27;;;;;;;9.88;4.80;;;1.00;99.90;;;-146.41;100.00;57768.22;4997805;28;20305;-73
2022/04/11 04:25:56;;;;;;;10.32;5.50;;;1.10;99.90;;;-146.41;100.00;57768.22;4989330;28;20042;-73
2022/04/11 04:28:23;;;;;;;6.85;3.20;;;1.00;99.90;;;-146.41;100.00;57768.22;4998414;28;20131;-74
2022/04/11 04:30:50;;;;;;;7.38;3.63;;;1.10;99.90;;;-146.41;100.00;57768.22;4997066;28;20129;-74
2022/04/11 04:33:17;;;;;;;9.30;3.50;;;1.10;99.90;;;-146.41;100.00;57768.22;5002376;28;20121;-74
2022/04/11 04:35:44;;;;;;;7.80;3.60;;;1.00;99.90;;;-146.41;100.00;57768.22;4999335;28;20516;-74
2022/04/11 04:38:12;;;;;;;17.88;6.95;;;1.00;99.90;;;-146.41;100.00;57768.22;4993920;28;20092;-74
2022/04/11 04:40:39;;;;;;;14.68;7.65;;;1.00;99.90;;;-146.41;100.00;57768.22;4992107;28;20508;-74
2022/04/11 04:43:06;;;;;;;8.32;5.10;;;1.00;99.90;;;-146.41;100.00;57768.22;4995118;28;20074;-74
2022/04/11 04:45:36;;;;;;;16.08;8.85;;;0.90;99.90;;;-146.41;100.00;57768.22;4997960;28;20085;-74
2022/04/11 04:48:09;;;;;;;17.20;9.10;;;1.00;99.90;;;-146.41;100.00;57768.22;4996142;28;20045;-74
2022/04/11 04:50:36;;;;;;;18.60;9.48;;;0.90;99.90;;;-146.41;100.00;57768.22;4996435;28;20146;-73
2022/04/11 04:53:03;;;;;;;16.95;9.63;;;0.90;99.90;;;-146.41;100.00;57768.22;4996916;28;20074;-74
2022/04/11 04:55:30;;;;;;;16.40;9.60;;;0.90;99.90;;;-146.41;100.00;57768.22;5000561;28;20088;-73
2022/04/11 04:57:57;;;;;;;17.92;9.40;;;0.80;99.90;;;-146.41;100.00;57768.22;4999489;28;20145;-74
2022/04/11 05:00:24;;;;;;;18.15;9.65;;;0.90;99.90;;;-146.41;100.00;57768.22;4997264;28;20140;-74
2022/04/11 05:02:51;;;;;;;19.50;9.45;;;0.90;99.90;;;-146.41;100.00;57768.22;4997691;28;20142;-75
2022/04/11 05:05:18;;;;;;;24.20;12.85;;;0.90;99.90;;;-146.41;100.00;57768.22;4998982;28;20887;-73
2022/04/11 05:07:45;;;;;;;20.52;12.13;;;0.90;99.90;;;-146.41;100.00;57768.22;4996278;28;20141;-74
2022/04/11 05:10:15;;;;;;;31.45;15.57;;;0.90;99.90;;;-146.41;100.00;57768.22;4998387;28;20526;-74
2022/04/11 05:12:45;;;;;;;24.05;14.10;;;1.00;99.90;;;-146.41;100.00;57768.22;4995230;28;20543;-73
2022/04/11 05:15:14;;;;;;;18.98;11.55;;;1.00;99.90;;;-146.41;100.00;57768.22;4997742;28;20144;-73
2022/04/11 05:17:41;;;;;;;17.33;9.70;;;1.00;99.90;;;-146.41;100.00;57768.22;4997147;28;20061;-74
2022/04/11 05:20:10;;;;;;;12.07;6.28;;;1.00;99.90;;;-146.41;100.00;57768.22;4995510;28;20046;-74
2022/04/11 05:22:39;;;;;;;8.48;4.30;;;1.00;99.90;;;-146.41;100.00;57768.22;4995816;28;20131;-72
2022/04/11 05:25:06;;;;;;;12.65;7.07;;;1.00;99.90;;;-146.41;100.00;57768.22;4995475;28;20046;-74
2022/04/11 05:27:33;;;;;;;13.50;5.53;;;1.10;99.90;;;-146.41;100.00;57768.22;4997942;28;20551;-73
2022/04/11 05:30:05;;;;;;;7.18;3.00;;;1.00;99.90;;;-146.41;100.00;57768.22;4983596;28;20046;-74
2022/04/11 05:32:35;;;;;;;6.65;2.20;;;1.10;99.90;;;-146.41;100.00;57768.22;4977681;28;20045;-73
2022/04/11 05:35:03;;;;;;;7.10;2.53;;;1.10;99.90;;;-146.41;100.00;57768.22;4995473;28;20045;-73
2022/04/11 05:37:30;;;;;;;8.20;2.95;;;1.10;99.90;;;-146.41;100.00;57768.22;4978216;28;20136;-73
2022/04/11 05:39:57;;;;;;;6.90;2.55;;;1.20;99.90;;;-146.41;100.00;57768.22;4998204;28;20471;-73
2022/04/11 05:42:24;;;;;;;4.95;2.10;;;1.20;99.90;;;-146.41;100.00;57768.22;5001089;28;20111;-74
2022/04/11 05:44:51;;;;;;;4.93;1.48;;;1.20;99.90;;;-146.41;100.00;57768.22;5004945;28;20128;-74
2022/04/11 05:47:18;;;;;;;3.83;1.63;;;1.30;99.90;;;-146.41;100.00;57768.22;4999101;28;20124;-73
2022/04/11 05:49:45;;;;;;;5.88;1.98;;;1.40;99.90;;;-146.41;100.00;57768.22;4994226;28;20046;-73
2022/04/11 05:52:16;;;;;;;5.63;1.58;;;1.40;99.90;;;-146.41;100.00;57768.22;4996297;28;20413;-74
2022/04/11 05:54:43;;;;;;;4.65;1.85;;;1.50;99.90;;;-146.41;100.00;57768.22;4993354;28;20108;-73
2022/04/11 05:57:10;;;;;;;4.75;1.63;;;1.70;99.90;;;-146.41;100.00;57768.22;4996828;28;20047;-73
2022/04/11 05:59:37;;;;;;;3.35;1.65;;;1.80;99.90;;;-146.41;100.00;57768.22;4994687;28;20590;-74
2022/04/11 06:02:05;;;;;;;7.25;1.88;;;1.90;99.90;;;-146.41;100.00;57768.22;5010348;28;20408;-73
2022/04/11 06:04:32;;;;;;;6.22;1.50;;;2.10;99.90;;;-146.41;100.00;57768.22;4993154;28;20119;-74
2022/04/11 06:06:59;;;;;;;3.20;1.60;;;2.30;99.90;;;-146.41;100.00;57768.22;4976480;28;20184;-73
2022/04/11 06:09:26;;;;;;;6.32;1.73;;;2.40;99.90;;;-146.41;100.00;57768.22;4998681;28;20129;-73
2022/04/11 06:11:53;;;;;;;3.78;1.55;;;2.50;99.90;;;-146.41;100.00;57768.22;4995699;28;20046;-73
2022/04/11 06:14:20;;;;;;;3.47;1.48;;;2.70;99.90;;;-146.41;100.00;57768.22;4996050;28;20128;-73
2022/04/11 06:16:47;;;;;;;2.63;1.20;;;2.90;99.90;;;-146.41;100.00;57768.22;4999151;28;20126;-74
2022/04/11 06:19:16;;;;;;;3.83;1.30;;;3.10;99.90;;;-146.41;100.00;57768.22;5000396;28;20431;-74
2022/04/11 06:21:43;;;;;;;5.68;1.42;;;3.30;99.90;;;-146.41;100.00;57768.22;4996025;28;20185;-74
2022/04/11 06:24:10;;;;;;;4.40;1.58;;;3.60;99.90;;;-146.41;100.00;57768.22;4997090;28;20127;-74
2022/04/11 06:26:38;;;;;;;5.25;1.50;;;3.80;99.90;;;-146.41;100.00;57768.22;4999353;28;20096;-73
2022/04/11 06:29:05;;;;;;;3.42;1.40;;;3.90;99.90;;;-146.41;100.00;57768.22;4995222;28;20100;-73
2022/04/11 06:31:32;;;;;;;3.90;1.30;;;4.20;99.90;;;-146.41;100.00;57768.22;4995926;28;20110;-74
2022/04/11 06:33:59;;;;;;;3.20;1.30;;;4.40;99.90;;;-146.41;100.00;57768.22;4995264;28;20116;-74
2022/04/11 06:36:26;;;;;;;4.18;1.35;;;4.60;99.90;;;-146.41;100.00;57768.22;5000373;28;20129;-73
2022/04/11 06:38:53;;;;;;;4.90;1.55;;;4.80;99.90;;;-146.41;100.00;57768.22;4996643;28;20093;-74
2022/04/11 06:41:27;;;;;;;3.70;1.30;;;4.90;99.90;;;-146.41;100.00;57768.22;4998576;28;20048;-73
2022/04/11 06:43:54;;;;;;;4.28;1.38;;;5.10;99.90;;;-146.41;100.00;57768.22;5001139;28;20093;-73
2022/04/11 06:46:22;;;;;;;6.93;1.38;;;5.30;99.90;;;-146.41;100.00;57768.22;4998208;28;20050;-73
2022/04/11 06:48:49;;;;;;;11.60;1.75;;;5.50;99.90;;;-146.41;100.00;57768.22;4999875;28;20053;-73
2022/04/11 06:51:15;;;;;;;5.82;1.90;;;5.60;99.90;;;-146.41;100.00;57768.22;4992978;28;20121;-73
2022/04/11 06:53:42;;;;;;;5.38;1.48;;;5.80;99.90;;;-146.41;100.00;57768.22;4983725;28;20076;-73
2022/04/11 06:56:09;;;;;;;6.82;2.22;;;5.90;99.90;;;-146.41;100.00;57768.22;5000686;28;20049;-74
2022/04/11 06:58:36;;;;;;;6.70;3.22;;;6.10;99.90;;;-146.41;100.00;57768.22;4997487;28;20093;-73
2022/04/11 07:01:03;;;;;;;30.70;10.35;;;6.20;99.90;;;-146.41;100.00;57768.22;4995560;28;20100;-74
2022/04/11 07:03:31;;;;;;;150.00;50.88;;;6.40;99.90;;;-146.41;100.00;57768.22;4995205;28;20136;-73
2022/04/11 07:05:59;;;;;;;73.20;28.58;;;6.50;99.90;;;-146.41;100.00;57768.22;4997045;28;20056;-72
2022/04/11 07:08:26;;;;;;;26.63;11.15;;;6.70;99.90;;;-146.41;100.00;57768.22;4992131;28;20085;-72
2022/04/11 07:10:54;;;;;;;13.95;5.93;;;6.80;99.90;;;-146.41;100.00;57768.22;5003307;28;20126;-72
2022/04/11 07:13:20;;;;;;;8.43;3.50;;;7.00;99.90;;;-146.41;100.00;57768.22;5001224;28;20092;-74
2022/04/11 07:15:48;;;;;;;7.25;3.03;;;7.10;99.90;;;-146.41;100.00;57768.22;4986412;28;20065;-72
2022/04/11 07:18:15;;;;;;;10.02;4.78;;;7.20;99.90;;;-146.41;100.00;57768.22;4997296;28;20060;-74
2022/04/11 07:20:42;;;;;;;7.25;3.60;;;7.30;99.90;;;-146.41;100.00;57768.22;5002471;28;20062;-72
2022/04/11 07:23:09;;;;;;;9.45;3.50;;;7.40;99.90;;;-146.41;100.00;57768.22;5004352;28;20056;-72
2022/04/11 07:25:37;;;;;;;5.65;2.13;;;7.60;99.90;;;-146.41;100.00;57768.22;5002819;28;20081;-72
2022/04/11 07:28:05;;;;;;;6.10;2.30;;;7.60;99.90;;;-146.41;100.00;57768.22;5001385;28;20073;-72
2022/04/11 07:30:33;;;;;;;31.60;16.25;;;7.60;99.90;;;-146.41;100.00;57768.22;5005697;28;20074;-72
2022/04/11 07:33:00;;;;;;;54.00;26.02;;;7.70;99.90;;;-146.41;100.00;57768.22;4996996;28;20046;-74
2022/04/11 07:35:27;;;;;;;11.45;6.75;;;7.80;99.90;;;-146.41;100.00;57768.22;5006203;28;20145;-72
2022/04/11 07:37:57;;;;;;;6.90;2.78;;;7.90;99.90;;;-146.41;100.00;57768.22;5006487;28;20433;-75
2022/04/11 07:40:25;;;;;;;5.82;1.90;;;8.00;99.90;;;-146.41;100.00;57768.22;5013366;28;20196;-74
2022/04/11 07:42:52;;;;;;;6.95;2.13;;;8.10;99.90;;;-146.41;100.00;57768.22;4996276;28;20049;-75
2022/04/11 07:45:20;;;;;;;8.10;3.67;;;8.00;99.90;;;-146.41;100.00;57768.22;5003985;28;20052;-75
2022/04/11 07:47:52;;;;;;;8.45;4.40;;;8.10;99.90;;;-146.41;100.00;57768.22;4997644;28;21527;-75
2022/04/11 07:50:21;;;;;;;4.50;2.08;;;8.30;99.90;;;-146.41;100.00;57768.22;4999137;28;20039;-75
2022/04/11 07:52:48;;;;;;;4.72;2.00;;;8.40;99.90;;;-146.41;100.00;57768.22;5002025;28;20524;-73
2022/04/11 07:55:20;;;;;;;4.47;1.63;;;8.40;99.90;;;-146.41;100.00;57768.22;4997875;28;20598;-72
2022/04/11 07:57:47;;;;;;;14.85;8.48;;;8.50;99.90;;;-146.41;100.00;57768.22;5002370;28;20064;-72
2022/04/11 08:00:20;;;;;;;5.05;1.73;;;8.60;99.90;;;-146.41;100.00;57768.22;4999046;28;20043;-72
2022/04/11 08:02:56;;;;;;;4.90;1.70;;;8.50;99.90;;;-146.41;100.00;57768.22;4999610;28;20508;-72
2022/04/11 08:05:24;;;;;;;3.28;1.33;;;8.70;99.90;;;-146.41;100.00;57768.22;4997255;28;20109;-72
2022/04/11 08:07:52;;;;;;;18.77;9.38;;;8.90;99.90;;;-146.41;100.00;57768.22;4998972;28;20128;-74
2022/04/11 08:10:21;;;;;;;11.25;6.90;;;9.10;99.90;;;-146.41;100.00;57768.22;5000920;28;20574;-72
2022/04/11 08:12:57;;;;;;;3.58;1.60;;;9.30;99.90;;;-146.41;100.00;57768.22;4990060;28;20045;-74
2022/04/11 08:15:28;;;;;;;5.47;1.77;;;9.40;99.90;;;-146.41;100.00;57768.22;4997977;28;20065;-74
2022/04/11 08:17:56;;;;;;;3.60;1.70;;;9.70;99.90;;;-146.41;100.00;57768.22;4996196;28;20058;-72
2022/04/11 08:20:24;;;;;;;4.82;1.60;;;9.80;99.90;;;-146.41;100.00;57768.22;4999175;28;20046;-74
2022/04/11 08:22:52;;;;;;;3.88;1.48;;;10.30;99.90;;;-146.41;100.00;57768.22;4999124;28;20054;-74
2022/04/11 08:25:19;;;;;;;4.30;1.20;;;10.60;99.90;;;-146.41;100.00;57768.22;5000979;28;20061;-72
2022/04/11 08:27:47;;;;;;;3.30;1.23;;;10.80;99.90;;;-146.41;100.00;57768.22;5002335;28;20084;-72
2022/04/11 08:30:14;;;;;;;2.25;0.98;;;11.10;97.70;;;-146.41;100.00;57768.22;5003347;28;20088;-72
2022/04/11 08:32:43;;;;;;;3.10;1.38;;;11.30;97.50;;;-146.41;100.00;57768.22;4992799;28;20060;-72
2022/04/11 08:35:11;;;;;;;2.90;1.10;;;11.50;96.80;;;-146.41;100.00;57768.22;4996699;28;20167;-72
2022/04/11 08:37:40;;;;;;;4.22;1.10;;;11.80;97.40;;;-146.41;100.00;57768.22;5007205;28;20097;-72
2022/04/11 08:40:12;;;;;;;4.85;1.20;;;12.10;97.40;;;-146.41;100.00;57768.22;4996896;28;20100;-72
2022/04/11 08:42:42;;;;;;;4.20;1.30;;;12.50;95.50;;;-146.41;100.00;57768.22;4997846;28;20518;-72
2022/04/11 08:45:13;;;;;;;5.22;1.38;;;12.60;93.30;;;-146.41;100.00;57768.22;5003275;28;20076;-72
2022/04/11 08:47:42;;;;;;;3.13;0.90;;;12.40;93.30;;;-146.41;100.00;57768.22;4999567;28;20054;-72
2022/04/11 08:50:11;;;;;;;2.60;1.10;;;12.90;94.50;;;-146.41;100.00;57768.22;5001544;28;20074;-72
2022/04/11 08:52:39;;;;;;;3.08;1.00;;;13.20;92.20;;;-146.41;100.00;57768.22;5002763;28;20563;-72
2022/04/11 08:55:07;;;;;;;3.13;1.08;;;;;;;-146.41;100.00;57768.22;5025484;28;20528;-72
2022/04/11 08:57:38;;;;;;;3.10;1.02;;;13.60;90.00;;;-146.41;100.00;57768.22;5000338;28;20079;-75
2022/04/11 09:00:25;;;;;;;3.38;0.93;;;14.00;91.10;;;-146.41;100.00;57768.22;5014355;28;20424;-72
2022/04/11 09:02:52;;;;;;;3.70;0.90;;;14.10;87.30;;;-146.41;100.00;57768.22;5002026;28;20077;-73
2022/04/11 09:05:24;;;;;;;1.35;0.50;;;14.00;85.30;;;-146.41;100.00;57768.22;4999635;28;20061;-72
2022/04/11 09:07:54;;;;;;;2.38;0.70;;;14.40;86.50;;;-146.41;100.00;57768.22;4996847;28;20504;-73
2022/04/11 09:10:25;;;;;;;3.33;0.90;;;14.30;83.10;;;-146.41;100.00;57768.22;4998217;28;20057;-74
2022/04/11 09:12:59;;;;;;;2.45;0.73;;;13.90;83.20;;;-146.41;100.00;57768.22;5001668;28;20409;-73
2022/04/11 09:15:28;;;;;;;3.17;0.85;;;13.90;82.20;;;-146.41;100.00;57768.22;5002146;28;20137;-73
2022/04/11 09:17:58;;;;;;;3.78;0.80;;;13.90;81.10;;;-146.41;100.00;57768.22;5032336;28;20508;-73
2022/04/11 09:20:28;;;;;;;2.97;0.85;;;14.00;79.40;;;-146.41;100.00;57768.22;4994346;28;20846;-69
2022/04/11 09:22:56;;;;;;;3.30;0.90;;;14.40;79.90;;;-146.41;100.00;57768.22;4994528;28;20515;-73
2022/04/11 09:25:31;;;;;;;1.63;0.60;;;14.40;77.70;;;-146.41;100.00;57768.22;4996565;28;20060;-73
2022/04/11 09:28:10;;;;;;;1.95;0.60;;;14.50;78.80;;;-146.41;100.00;57768.22;4978750;28;20057;-73
2022/04/11 09:30:40;;;;;;;4.32;0.70;;;14.50;77.70;;;-146.41;100.00;57768.22;4997640;28;20053;-73
2022/04/11 09:33:09;;;;;;;5.45;0.80;;;14.50;75.30;;;-146.41;100.00;57768.22;4996876;28;20073;-73
2022/04/11 09:35:44;;;;;;;3.35;0.60;;;14.60;75.20;;;-146.41;100.00;57768.22;4995922;28;20062;-73
2022/04/11 09:38:22;;;;;;;3.30;0.60;;;15.00;77.50;;;-146.41;100.00;57768.22;5000797;28;20058;-73
2022/04/11 09:40:55;;;;;;;2.10;0.60;;;15.30;77.50;;;-146.41;100.00;57768.22;4996138;28;20085;-72
2022/04/11 09:43:29;;;;;;;1.20;0.50;;;15.40;72.50;;;-146.41;100.00;57768.22;4993143;28;20054;-74
2022/04/11 09:45:59;;;;;;;4.05;0.73;;;14.90;72.80;;;-146.41;100.00;57768.22;4994622;28;20433;-72
2022/04/11 09:48:29;;;;;;;2.67;0.70;;;15.30;73.70;;;-146.41;100.00;57768.22;4997832;28;20131;-72
2022/04/11 09:51:00;;;;;;;2.50;0.60;;;15.70;72.50;;;-146.41;100.00;57768.22;4998704;28;20475;-72
2022/04/11 09:53:35;;;;;;;1.38;0.50;;;15.80;72.70;;;-146.41;100.00;57768.22;4995465;28;20056;-73
2022/04/11 09:56:09;;;;;;;3.45;0.60;;;15.70;71.00;;;-146.41;100.00;57768.22;4997195;28;20621;-72
2022/04/11 09:58:39;;;;;;;3.17;0.57;;;15.60;71.00;;;-146.41;100.00;57768.22;4995480;28;20184;-71
2022/04/11 10:01:07;;;;;;;1.63;0.60;;;15.90;71.50;;;-146.41;100.00;57768.22;5006580;28;20042;-69
2022/04/11 10:03:36;;;;;;;6.25;0.65;;;16.30;74.50;;;-146.41;100.00;57768.22;5000462;28;20073;-70
2022/04/11 10:06:05;;;;;;;2.10;0.50;;;16.70;70.50;;;-146.41;100.00;57768.22;4995260;28;20088;-69